Berclair, Texas
Current Conditions -  °F | °C
As of 8:55 AM on Wednesday 22 Oct 2014 (Local Time) from KBEA Reporting Station
Clear Clear  
Wind Chill: 69°   Ceiling: Unl
Heat Index: 69°   Visibility: 10mi
Dew Point: 60°   Wind: 6mph
Humidity: 74%   Direction: 40°NE
Pressure: 30.06"   Gusts: NA
Location:  28.53°N, 97.59°W
Report Text: KBEA 221355Z AUTO 04005KT 10SM CLR 21/16 A3006 RMK AO2 T02050157
Loading
Personal Weather Stations






























Interactive Weather Map
Tropical Storm Tracking
New forecast layout! Learn more

10-Day Weather Forecast

Advertisements
Track Severe Weather on mobile